sensor_id;sensor_type;location;lat;lon;timestamp;pressure;altitude;pressure_sealevel;temperature;humidity
8286;BME280;4181;43.416;24.598;2022-12-29T00:00:13;101246.56;;;6.92;100.00
8286;BME280;4181;43.416;24.598;2022-12-29T00:02:38;101233.19;;;6.91;100.00
8286;BME280;4181;43.416;24.598;2022-12-29T00:05:04;101229.66;;;6.97;100.00
8286;BME280;4181;43.416;24.598;2022-12-29T00:07:30;101234.69;;;7.00;100.00
8286;BME280;4181;43.416;24.598;2022-12-29T00:09:55;101244.41;;;6.88;100.00
8286;BME280;4181;43.416;24.598;2022-12-29T00:12:20;101236.03;;;6.83;100.00
8286;BME280;4181;43.416;24.598;2022-12-29T00:14:46;101245.66;;;6.85;100.00
8286;BME280;4181;43.416;24.598;2022-12-29T00:17:30;101247.13;;;6.88;100.00
8286;BME280;4181;43.416;24.598;2022-12-29T00:19:55;101240.28;;;6.92;100.00
8286;BME280;4181;43.416;24.598;2022-12-29T00:22:39;101249.06;;;6.94;100.00
8286;BME280;4181;43.416;24.598;2022-12-29T00:25:23;101242.00;;;6.99;100.00
8286;BME280;4181;43.416;24.598;2022-12-29T00:28:10;101238.69;;;7.04;100.00
8286;BME280;4181;43.416;24.598;2022-12-29T00:30:58;101254.38;;;6.74;100.00
8286;BME280;4181;43.416;24.598;2022-12-29T00:33:43;101255.03;;;6.49;100.00
8286;BME280;4181;43.416;24.598;2022-12-29T00:36:32;101255.28;;;6.54;100.00
8286;BME280;4181;43.416;24.598;2022-12-29T00:39:03;101251.34;;;6.63;100.00
8286;BME280;4181;43.416;24.598;2022-12-29T00:41:49;101236.00;;;6.76;100.00
8286;BME280;4181;43.416;24.598;2022-12-29T00:44:33;101233.16;;;6.84;100.00
8286;BME280;4181;43.416;24.598;2022-12-29T00:46:58;101241.94;;;6.93;100.00
8286;BME280;4181;43.416;24.598;2022-12-29T00:49:28;101246.59;;;6.99;100.00
8286;BME280;4181;43.416;24.598;2022-12-29T00:52:08;101244.97;;;7.11;100.00
8286;BME280;4181;43.416;24.598;2022-12-29T00:54:36;101250.44;;;7.17;100.00
8286;BME280;4181;43.416;24.598;2022-12-29T00:57:06;101245.47;;;7.27;100.00
8286;BME280;4181;43.416;24.598;2022-12-29T00:59:34;101240.50;;;7.37;100.00
8286;BME280;4181;43.416;24.598;2022-12-29T01:02:00;101234.44;;;7.42;100.00
8286;BME280;4181;43.416;24.598;2022-12-29T01:04:26;101233.56;;;7.28;100.00
8286;BME280;4181;43.416;24.598;2022-12-29T01:06:52;101219.56;;;7.25;100.00
8286;BME280;4181;43.416;24.598;2022-12-29T01:09:18;101223.97;;;7.26;100.00
8286;BME280;4181;43.416;24.598;2022-12-29T01:12:04;101211.63;;;7.23;100.00
8286;BME280;4181;43.416;24.598;2022-12-29T01:14:30;101213.41;;;7.03;100.00
8286;BME280;4181;43.416;24.598;2022-12-29T01:16:55;101228.63;;;6.98;100.00
8286;BME280;4181;43.416;24.598;2022-12-29T01:19:21;101232.38;;;6.97;100.00
8286;BME280;4181;43.416;24.598;2022-12-29T01:21:47;101187.50;;;6.54;100.00
8286;BME280;4181;43.416;24.598;2022-12-29T01:24:14;101210.63;;;6.84;100.00
8286;BME280;4181;43.416;24.598;2022-12-29T01:26:40;101204.72;;;6.74;100.00
8286;BME280;4181;43.416;24.598;2022-12-29T01:29:06;101203.91;;;6.80;100.00
8286;BME280;4181;43.416;24.598;2022-12-29T01:31:31;101199.75;;;6.84;100.00
8286;BME280;4181;43.416;24.598;2022-12-29T01:33:57;101188.94;;;6.90;100.00
8286;BME280;4181;43.416;24.598;2022-12-29T01:36:23;101188.31;;;6.95;100.00
8286;BME280;4181;43.416;24.598;2022-12-29T01:38:49;101181.44;;;6.92;100.00
8286;BME280;4181;43.416;24.598;2022-12-29T01:41:15;101180.22;;;7.08;100.00
8286;BME280;4181;43.416;24.598;2022-12-29T01:43:42;101174.81;;;7.08;100.00
8286;BME280;4181;43.416;24.598;2022-12-29T01:48:39;101170.47;;;7.20;100.00
8286;BME280;4181;43.416;24.598;2022-12-29T01:51:05;101162.13;;;7.21;100.00
8286;BME280;4181;43.416;24.598;2022-12-29T01:53:33;101161.47;;;7.13;100.00
8286;BME280;4181;43.416;24.598;2022-12-29T01:56:02;101171.09;;;7.15;100.00
8286;BME280;4181;43.416;24.598;2022-12-29T01:58:33;101169.22;;;7.16;100.00
8286;BME280;4181;43.416;24.598;2022-12-29T02:01:02;101160.44;;;7.14;100.00
8286;BME280;4181;43.416;24.598;2022-12-29T02:03:28;101155.19;;;7.06;100.00
8286;BME280;4181;43.416;24.598;2022-12-29T02:06:21;101155.00;;;7.14;100.00
8286;BME280;4181;43.416;24.598;2022-12-29T02:08:49;101157.09;;;7.18;100.00
8286;BME280;4181;43.416;24.598;2022-12-29T02:11:16;101154.19;;;7.20;100.00
8286;BME280;4181;43.416;24.598;2022-12-29T02:13:42;101131.66;;;7.26;100.00
8286;BME280;4181;43.416;24.598;2022-12-29T02:22:05;101134.00;;;7.48;100.00
8286;BME280;4181;43.416;24.598;2022-12-29T02:36:07;101126.06;;;7.40;100.00
8286;BME280;4181;43.416;24.598;2022-12-29T02:44:14;101124.31;;;7.20;100.00
8286;BME280;4181;43.416;24.598;2022-12-29T02:46:59;101126.41;;;7.24;100.00
8286;BME280;4181;43.416;24.598;2022-12-29T02:49:36;101121.84;;;7.25;100.00
8286;BME280;4181;43.416;24.598;2022-12-29T02:52:14;101121.84;;;7.38;100.00
8286;BME280;4181;43.416;24.598;2022-12-29T02:54:41;101122.69;;;7.45;100.00
8286;BME280;4181;43.416;24.598;2022-12-29T02:59:49;101125.84;;;7.55;100.00
8286;BME280;4181;43.416;24.598;2022-12-29T03:12:59;101118.13;;;7.71;100.00
8286;BME280;4181;43.416;24.598;2022-12-29T03:15:54;101111.03;;;7.51;100.00
8286;BME280;4181;43.416;24.598;2022-12-29T03:24:08;101096.97;;;7.15;100.00
8286;BME280;4181;43.416;24.598;2022-12-29T03:26:35;101096.34;;;7.19;100.00
8286;BME280;4181;43.416;24.598;2022-12-29T03:29:02;101104.69;;;7.18;100.00
8286;BME280;4181;43.416;24.598;2022-12-29T03:31:29;101107.19;;;7.19;100.00
8286;BME280;4181;43.416;24.598;2022-12-29T03:33:55;101104.69;;;7.18;100.00
8286;BME280;4181;43.416;24.598;2022-12-29T03:36:32;101119.09;;;7.12;100.00
8286;BME280;4181;43.416;24.598;2022-12-29T03:39:09;101122.88;;;7.11;100.00
8286;BME280;4181;43.416;24.598;2022-12-29T03:41:39;101130.78;;;7.06;100.00
8286;BME280;4181;43.416;24.598;2022-12-29T03:44:07;101124.69;;;6.91;100.00
8286;BME280;4181;43.416;24.598;2022-12-29T03:46:32;101140.97;;;6.91;100.00
8286;BME280;4181;43.416;24.598;2022-12-29T03:48:58;101136.72;;;6.82;100.00
8286;BME280;4181;43.416;24.598;2022-12-29T03:51:23;101148.78;;;6.73;100.00
8286;BME280;4181;43.416;24.598;2022-12-29T03:53:49;101150.75;;;6.51;100.00
8286;BME280;4181;43.416;24.598;2022-12-29T03:56:14;101155.38;;;6.51;100.00
8286;BME280;4181;43.416;24.598;2022-12-29T03:58:40;101164.19;;;6.31;100.00
8286;BME280;4181;43.416;24.598;2022-12-29T04:01:05;101158.13;;;6.29;100.00
8286;BME280;4181;43.416;24.598;2022-12-29T04:03:31;101154.94;;;6.19;100.00
8286;BME280;4181;43.416;24.598;2022-12-29T04:05:56;101156.88;;;6.25;100.00
8286;BME280;4181;43.416;24.598;2022-12-29T04:08:22;101160.28;;;6.34;100.00
8286;BME280;4181;43.416;24.598;2022-12-29T04:10:50;101155.06;;;6.32;100.00
8286;BME280;4181;43.416;24.598;2022-12-29T04:13:16;101184.81;;;5.98;100.00
8286;BME280;4181;43.416;24.598;2022-12-29T04:15:43;101178.69;;;5.90;100.00
8286;BME280;4181;43.416;24.598;2022-12-29T04:18:08;101188.47;;;5.70;100.00
8286;BME280;4181;43.416;24.598;2022-12-29T04:20:34;101200.56;;;5.32;100.00
8286;BME280;4181;43.416;24.598;2022-12-29T04:23:17;101194.25;;;5.25;100.00
8286;BME280;4181;43.416;24.598;2022-12-29T04:25:46;101196.50;;;5.21;100.00
8286;BME280;4181;43.416;24.598;2022-12-29T04:28:13;101171.94;;;5.22;100.00
8286;BME280;4181;43.416;24.598;2022-12-29T04:30:38;101188.09;;;5.31;100.00
8286;BME280;4181;43.416;24.598;2022-12-29T04:33:03;101178.28;;;5.30;100.00
8286;BME280;4181;43.416;24.598;2022-12-29T04:35:29;101186.72;;;5.20;100.00
8286;BME280;4181;43.416;24.598;2022-12-29T04:37:54;101182.56;;;5.24;100.00
8286;BME280;4181;43.416;24.598;2022-12-29T04:40:20;101124.81;;;5.10;100.00
8286;BME280;4181;43.416;24.598;2022-12-29T04:42:45;101123.44;;;5.21;100.00
8286;BME280;4181;43.416;24.598;2022-12-29T04:45:11;101137.38;;;5.18;100.00
8286;BME280;4181;43.416;24.598;2022-12-29T04:47:36;101140.72;;;5.20;100.00
8286;BME280;4181;43.416;24.598;2022-12-29T04:50:02;101142.63;;;5.05;100.00
8286;BME280;4181;43.416;24.598;2022-12-29T04:52:28;101150.25;;;4.80;100.00
8286;BME280;4181;43.416;24.598;2022-12-29T04:54:53;101145.78;;;4.73;100.00
8286;BME280;4181;43.416;24.598;2022-12-29T04:57:19;101162.81;;;4.88;100.00
8286;BME280;4181;43.416;24.598;2022-12-29T04:59:44;101153.81;;;4.66;100.00
8286;BME280;4181;43.416;24.598;2022-12-29T05:02:10;101148.75;;;4.78;100.00
8286;BME280;4181;43.416;24.598;2022-12-29T05:04:35;101146.84;;;4.93;100.00
8286;BME280;4181;43.416;24.598;2022-12-29T05:07:01;101141.53;;;4.99;100.00
8286;BME280;4181;43.416;24.598;2022-12-29T05:09:26;101143.50;;;4.91;100.00
8286;BME280;4181;43.416;24.598;2022-12-29T05:11:51;101135.72;;;4.67;100.00
8286;BME280;4181;43.416;24.598;2022-12-29T05:14:17;101140.56;;;4.71;100.00
8286;BME280;4181;43.416;24.598;2022-12-29T05:16:42;101145.81;;;4.58;100.00
8286;BME280;4181;43.416;24.598;2022-12-29T05:19:08;101147.66;;;4.58;100.00
8286;BME280;4181;43.416;24.598;2022-12-29T05:21:33;101157.75;;;4.35;100.00
8286;BME280;4181;43.416;24.598;2022-12-29T05:23:59;101155.03;;;4.49;100.00
8286;BME280;4181;43.416;24.598;2022-12-29T05:26:24;101147.28;;;4.61;100.00
8286;BME280;4181;43.416;24.598;2022-12-29T05:28:50;101147.66;;;4.58;100.00
8286;BME280;4181;43.416;24.598;2022-12-29T05:31:15;101145.50;;;4.68;100.00
8286;BME280;4181;43.416;24.598;2022-12-29T05:33:41;101151.59;;;4.26;100.00
8286;BME280;4181;43.416;24.598;2022-12-29T05:36:07;101154.28;;;4.12;100.00
8286;BME280;4181;43.416;24.598;2022-12-29T05:38:34;101152.81;;;4.24;100.00
8286;BME280;4181;43.416;24.598;2022-12-29T05:40:59;101141.78;;;4.11;100.00
8286;BME280;4181;43.416;24.598;2022-12-29T05:43:25;101143.94;;;4.15;100.00
8286;BME280;4181;43.416;24.598;2022-12-29T05:45:51;101164.25;;;4.26;100.00
8286;BME280;4181;43.416;24.598;2022-12-29T05:48:16;101150.47;;;4.35;100.00
8286;BME280;4181;43.416;24.598;2022-12-29T05:50:42;101164.09;;;4.42;100.00
8286;BME280;4181;43.416;24.598;2022-12-29T05:53:07;101163.22;;;4.12;100.00
8286;BME280;4181;43.416;24.598;2022-12-29T05:55:34;101159.03;;;4.10;100.00
8286;BME280;4181;43.416;24.598;2022-12-29T05:57:59;101162.19;;;4.13;100.00
8286;BME280;4181;43.416;24.598;2022-12-29T06:00:25;101172.91;;;4.21;100.00
8286;BME280;4181;43.416;24.598;2022-12-29T06:02:50;101179.16;;;4.22;100.00
8286;BME280;4181;43.416;24.598;2022-12-29T06:05:16;101177.94;;;4.24;100.00
8286;BME280;4181;43.416;24.598;2022-12-29T06:07:41;101192.56;;;4.30;100.00
8286;BME280;4181;43.416;24.598;2022-12-29T06:10:07;101191.38;;;4.47;100.00
8286;BME280;4181;43.416;24.598;2022-12-29T06:12:33;101199.00;;;4.72;100.00
8286;BME280;4181;43.416;24.598;2022-12-29T06:14:58;101195.81;;;4.98;100.00
8286;BME280;4181;43.416;24.598;2022-12-29T06:17:23;101206.44;;;5.35;100.00
8286;BME280;4181;43.416;24.598;2022-12-29T06:19:49;101205.78;;;5.54;100.00
8286;BME280;4181;43.416;24.598;2022-12-29T06:22:14;101208.13;;;5.78;100.00
8286;BME280;4181;43.416;24.598;2022-12-29T06:24:40;101215.69;;;5.83;100.00
8286;BME280;4181;43.416;24.598;2022-12-29T06:27:05;101220.72;;;5.86;100.00
8286;BME280;4181;43.416;24.598;2022-12-29T06:29:31;101228.75;;;5.94;100.00
8286;BME280;4181;43.416;24.598;2022-12-29T06:31:56;101222.69;;;6.19;100.00
8286;BME280;4181;43.416;24.598;2022-12-29T06:34:24;101215.91;;;6.30;100.00
8286;BME280;4181;43.416;24.598;2022-12-29T06:36:49;101227.19;;;6.33;100.00
8286;BME280;4181;43.416;24.598;2022-12-29T06:39:15;101233.91;;;6.37;100.00
8286;BME280;4181;43.416;24.598;2022-12-29T06:41:40;101220.19;;;6.46;100.00
8286;BME280;4181;43.416;24.598;2022-12-29T06:44:06;101231.00;;;6.73;100.00
8286;BME280;4181;43.416;24.598;2022-12-29T06:46:31;101230.69;;;6.89;100.00
8286;BME280;4181;43.416;24.598;2022-12-29T06:48:57;101230.72;;;6.96;100.00
8286;BME280;4181;43.416;24.598;2022-12-29T06:51:22;101238.06;;;7.08;100.00
8286;BME280;4181;43.416;24.598;2022-12-29T06:53:47;101237.53;;;7.26;100.00
8286;BME280;4181;43.416;24.598;2022-12-29T06:56:13;101245.56;;;7.60;100.00
8286;BME280;4181;43.416;24.598;2022-12-29T06:58:38;101246.00;;;7.77;100.00
8286;BME280;4181;43.416;24.598;2022-12-29T07:01:06;101240.59;;;7.83;100.00
8286;BME280;4181;43.416;24.598;2022-12-29T07:03:32;101238.94;;;7.82;100.00
8286;BME280;4181;43.416;24.598;2022-12-29T07:05:57;101241.88;;;8.00;100.00
8286;BME280;4181;43.416;24.598;2022-12-29T07:08:23;101233.50;;;8.08;100.00
8286;BME280;4181;43.416;24.598;2022-12-29T07:10:49;101245.47;;;8.27;100.00
8286;BME280;4181;43.416;24.598;2022-12-29T07:13:14;101255.72;;;8.44;100.00
8286;BME280;4181;43.416;24.598;2022-12-29T07:15:40;101245.25;;;8.54;100.00
8286;BME280;4181;43.416;24.598;2022-12-29T07:18:05;101251.53;;;8.48;100.00
8286;BME280;4181;43.416;24.598;2022-12-29T07:20:31;101242.28;;;8.17;100.00
8286;BME280;4181;43.416;24.598;2022-12-29T07:22:57;101240.66;;;8.35;100.00
8286;BME280;4181;43.416;24.598;2022-12-29T07:25:23;101240.66;;;8.48;100.00
8286;BME280;4181;43.416;24.598;2022-12-29T07:27:48;101235.81;;;8.63;100.00
8286;BME280;4181;43.416;24.598;2022-12-29T07:30:14;101239.16;;;8.65;100.00
8286;BME280;4181;43.416;24.598;2022-12-29T07:32:40;101229.69;;;8.94;100.00
8286;BME280;4181;43.416;24.598;2022-12-29T07:35:05;101214.75;;;9.16;100.00
8286;BME280;4181;43.416;24.598;2022-12-29T07:37:34;101196.78;;;9.40;100.00
8286;BME280;4181;43.416;24.598;2022-12-29T07:40:00;101207.91;;;9.76;100.00
8286;BME280;4181;43.416;24.598;2022-12-29T07:42:26;101197.34;;;9.86;100.00
8286;BME280;4181;43.416;24.598;2022-12-29T07:44:52;101212.72;;;10.05;100.00
8286;BME280;4181;43.416;24.598;2022-12-29T07:47:17;101198.81;;;10.19;100.00
8286;BME280;4181;43.416;24.598;2022-12-29T07:49:43;101196.63;;;10.28;100.00
8286;BME280;4181;43.416;24.598;2022-12-29T07:52:08;101191.78;;;10.48;100.00
8286;BME280;4181;43.416;24.598;2022-12-29T07:54:33;101181.94;;;10.47;100.00
8286;BME280;4181;43.416;24.598;2022-12-29T07:56:59;101205.50;;;10.66;100.00
8286;BME280;4181;43.416;24.598;2022-12-29T07:59:25;101201.06;;;10.83;100.00
8286;BME280;4181;43.416;24.598;2022-12-29T08:01:51;101204.41;;;10.85;100.00
8286;BME280;4181;43.416;24.598;2022-12-29T08:04:16;101198.16;;;11.03;100.00
8286;BME280;4181;43.416;24.598;2022-12-29T08:06:42;101179.97;;;11.26;100.00
8286;BME280;4181;43.416;24.598;2022-12-29T08:09:08;101185.53;;;11.49;100.00
8286;BME280;4181;43.416;24.598;2022-12-29T08:11:33;101188.16;;;11.74;100.00
8286;BME280;4181;43.416;24.598;2022-12-29T08:13:59;101178.09;;;11.86;100.00
8286;BME280;4181;43.416;24.598;2022-12-29T08:16:24;101178.97;;;12.10;100.00
8286;BME280;4181;43.416;24.598;2022-12-29T08:18:50;101168.41;;;12.25;100.00
8286;BME280;4181;43.416;24.598;2022-12-29T08:21:15;101174.19;;;12.28;100.00
8286;BME280;4181;43.416;24.598;2022-12-29T08:23:40;101172.28;;;12.52;100.00
8286;BME280;4181;43.416;24.598;2022-12-29T08:26:06;101168.50;;;12.53;100.00
8286;BME280;4181;43.416;24.598;2022-12-29T08:28:32;101165.91;;;12.46;100.00
8286;BME280;4181;43.416;24.598;2022-12-29T08:30:59;101169.22;;;12.71;100.00
8286;BME280;4181;43.416;24.598;2022-12-29T08:33:25;101160.63;;;12.68;100.00
8286;BME280;4181;43.416;24.598;2022-12-29T08:35:51;101160.50;;;12.74;100.00
8286;BME280;4181;43.416;24.598;2022-12-29T08:38:17;101162.50;;;12.91;100.00
8286;BME280;4181;43.416;24.598;2022-12-29T08:40:43;101159.25;;;13.05;100.00
8286;BME280;4181;43.416;24.598;2022-12-29T08:43:09;101156.38;;;13.23;100.00
8286;BME280;4181;43.416;24.598;2022-12-29T08:45:34;101145.16;;;13.53;100.00
8286;BME280;4181;43.416;24.598;2022-12-29T08:48:00;101149.91;;;13.74;100.00
8286;BME280;4181;43.416;24.598;2022-12-29T08:50:25;101138.41;;;13.88;100.00
8286;BME280;4181;43.416;24.598;2022-12-29T08:52:51;101133.72;;;14.06;100.00
8286;BME280;4181;43.416;24.598;2022-12-29T08:55:16;101127.31;;;14.17;100.00
8286;BME280;4181;43.416;24.598;2022-12-29T08:57:42;101119.09;;;14.17;100.00
8286;BME280;4181;43.416;24.598;2022-12-29T09:00:08;101118.25;;;14.33;100.00
8286;BME280;4181;43.416;24.598;2022-12-29T09:02:33;101115.75;;;14.48;100.00
8286;BME280;4181;43.416;24.598;2022-12-29T09:05:01;101109.06;;;14.44;100.00
8286;BME280;4181;43.416;24.598;2022-12-29T09:07:27;101120.72;;;14.51;100.00
8286;BME280;4181;43.416;24.598;2022-12-29T09:09:52;101100.25;;;14.58;100.00
8286;BME280;4181;43.416;24.598;2022-12-29T09:12:18;101100.06;;;14.65;100.00
8286;BME280;4181;43.416;24.598;2022-12-29T09:14:45;101094.03;;;14.68;100.00
8286;BME280;4181;43.416;24.598;2022-12-29T09:17:11;101102.22;;;14.63;100.00
8286;BME280;4181;43.416;24.598;2022-12-29T09:19:55;101098.00;;;14.55;100.00
8286;BME280;4181;43.416;24.598;2022-12-29T09:22:20;101098.78;;;14.34;100.00
8286;BME280;4181;43.416;24.598;2022-12-29T09:24:46;101095.19;;;14.34;100.00
8286;BME280;4181;43.416;24.598;2022-12-29T09:27:11;101090.63;;;14.39;100.00
8286;BME280;4181;43.416;24.598;2022-12-29T09:29:37;101075.97;;;14.34;100.00
8286;BME280;4181;43.416;24.598;2022-12-29T09:32:03;101080.91;;;14.32;100.00
8286;BME280;4181;43.416;24.598;2022-12-29T09:34:28;101084.94;;;14.46;100.00
8286;BME280;4181;43.416;24.598;2022-12-29T09:36:54;101064.78;;;14.57;100.00
8286;BME280;4181;43.416;24.598;2022-12-29T09:39:21;101071.28;;;14.51;100.00
8286;BME280;4181;43.416;24.598;2022-12-29T09:47:45;101063.03;;;14.94;100.00
8286;BME280;4181;43.416;24.598;2022-12-29T09:50:22;101047.19;;;15.27;100.00
8286;BME280;4181;43.416;24.598;2022-12-29T09:54:17;101033.91;;;15.46;100.00
8286;BME280;4181;43.416;24.598;2022-12-29T09:56:15;101036.22;;;15.59;100.00
8286;BME280;4181;43.416;24.598;2022-12-29T09:58:49;101027.28;;;15.74;100.00
8286;BME280;4181;43.416;24.598;2022-12-29T10:01:36;101026.59;;;15.93;100.00
8286;BME280;4181;43.416;24.598;2022-12-29T10:04:03;101026.75;;;15.77;100.00
8286;BME280;4181;43.416;24.598;2022-12-29T10:09:37;101043.09;;;15.03;100.00
8286;BME280;4181;43.416;24.598;2022-12-29T10:26:00;101018.97;;;14.62;100.00
8286;BME280;4181;43.416;24.598;2022-12-29T10:31:15;101020.75;;;14.95;100.00
8286;BME280;4181;43.416;24.598;2022-12-29T10:34:25;101016.53;;;15.14;100.00
8286;BME280;4181;43.416;24.598;2022-12-29T10:36:57;101013.50;;;15.15;100.00
8286;BME280;4181;43.416;24.598;2022-12-29T10:42:04;101010.53;;;15.17;100.00
8286;BME280;4181;43.416;24.598;2022-12-29T10:44:33;101015.78;;;14.92;100.00
8286;BME280;4181;43.416;24.598;2022-12-29T10:47:12;101006.56;;;14.81;100.00
8286;BME280;4181;43.416;24.598;2022-12-29T10:49:42;101016.09;;;14.74;100.00
8286;BME280;4181;43.416;24.598;2022-12-29T10:52:11;101012.59;;;15.05;100.00
8286;BME280;4181;43.416;24.598;2022-12-29T10:54:51;101007.94;;;15.32;100.00
8286;BME280;4181;43.416;24.598;2022-12-29T10:57:34;101001.19;;;15.45;100.00
8286;BME280;4181;43.416;24.598;2022-12-29T11:00:11;101001.19;;;15.45;100.00
8286;BME280;4181;43.416;24.598;2022-12-29T11:05:37;100983.19;;;16.05;100.00
8286;BME280;4181;43.416;24.598;2022-12-29T11:08:17;100977.41;;;16.07;100.00
8286;BME280;4181;43.416;24.598;2022-12-29T11:10:45;100985.44;;;15.72;100.00
8286;BME280;4181;43.416;24.598;2022-12-29T11:13:47;100988.72;;;15.69;100.00
8286;BME280;4181;43.416;24.598;2022-12-29T11:16:13;100984.75;;;15.91;100.00
8286;BME280;4181;43.416;24.598;2022-12-29T11:18:40;100980.84;;;15.87;100.00
8286;BME280;4181;43.416;24.598;2022-12-29T11:21:36;100971.06;;;16.01;100.00
8286;BME280;4181;43.416;24.598;2022-12-29T11:24:26;100978.75;;;16.04;100.00
8286;BME280;4181;43.416;24.598;2022-12-29T11:29:55;100950.56;;;16.39;100.00
8286;BME280;4181;43.416;24.598;2022-12-29T11:34:46;100958.03;;;16.38;100.00
8286;BME280;4181;43.416;24.598;2022-12-29T11:37:16;100969.25;;;16.27;100.00
8286;BME280;4181;43.416;24.598;2022-12-29T11:42:17;100951.81;;;16.06;100.00
8286;BME280;4181;43.416;24.598;2022-12-29T11:44:46;100971.13;;;16.16;100.00
8286;BME280;4181;43.416;24.598;2022-12-29T11:47:28;100957.91;;;16.13;100.00
8286;BME280;4181;43.416;24.598;2022-12-29T11:49:57;100958.84;;;15.87;100.00
8286;BME280;4181;43.416;24.598;2022-12-29T11:52:26;100965.81;;;16.00;100.00
8286;BME280;4181;43.416;24.598;2022-12-29T11:54:53;100964.91;;;15.89;100.00
8286;BME280;4181;43.416;24.598;2022-12-29T11:57:20;100965.88;;;15.68;100.00
8286;BME280;4181;43.416;24.598;2022-12-29T11:59:54;100974.53;;;15.45;100.00
8286;BME280;4181;43.416;24.598;2022-12-29T12:02:35;100983.28;;;14.62;100.00
8286;BME280;4181;43.416;24.598;2022-12-29T12:08:12;100980.38;;;14.74;100.00
8286;BME280;4181;43.416;24.598;2022-12-29T12:10:44;100976.38;;;14.60;100.00
8286;BME280;4181;43.416;24.598;2022-12-29T12:13:22;100972.44;;;14.77;100.00
8286;BME280;4181;43.416;24.598;2022-12-29T12:16:05;100963.03;;;14.95;100.00
8286;BME280;4181;43.416;24.598;2022-12-29T12:21:05;100959.03;;;15.07;100.00
8286;BME280;4181;43.416;24.598;2022-12-29T12:26:37;100942.69;;;15.27;100.00
8286;BME280;4181;43.416;24.598;2022-12-29T12:29:18;100949.34;;;15.00;100.00
8286;BME280;4181;43.416;24.598;2022-12-29T12:31:50;100946.97;;;14.82;100.00
8286;BME280;4181;43.416;24.598;2022-12-29T12:34:35;100955.50;;;14.85;100.00
8286;BME280;4181;43.416;24.598;2022-12-29T12:48:35;100930.53;;;14.87;100.00
8286;BME280;4181;43.416;24.598;2022-12-29T13:02:19;100939.63;;;14.66;100.00
8286;BME280;4181;43.416;24.598;2022-12-29T13:10:28;100942.34;;;14.61;100.00
8286;BME280;4181;43.416;24.598;2022-12-29T13:19:05;100946.75;;;14.62;100.00
8286;BME280;4181;43.416;24.598;2022-12-29T13:22:21;100948.28;;;14.53;100.00
8286;BME280;4181;43.416;24.598;2022-12-29T13:24:27;100954.56;;;14.27;100.00
8286;BME280;4181;43.416;24.598;2022-12-29T13:29:55;100961.16;;;14.09;100.00
8286;BME280;4181;43.416;24.598;2022-12-29T13:38:01;100964.50;;;13.73;100.00
8286;BME280;4181;43.416;24.598;2022-12-29T13:40:32;100968.63;;;13.75;100.00
8286;BME280;4181;43.416;24.598;2022-12-29T13:43:01;100958.78;;;13.96;100.00
8286;BME280;4181;43.416;24.598;2022-12-29T13:45:29;100957.47;;;13.98;100.00
8286;BME280;4181;43.416;24.598;2022-12-29T13:50:27;100956.03;;;13.96;100.00
8286;BME280;4181;43.416;24.598;2022-12-29T13:53:11;100964.41;;;14.06;100.00
8286;BME280;4181;43.416;24.598;2022-12-29T13:55:49;100957.94;;;13.95;100.00
8286;BME280;4181;43.416;24.598;2022-12-29T13:58:29;100957.94;;;13.95;100.00
8286;BME280;4181;43.416;24.598;2022-12-29T14:01:17;100959.75;;;13.85;100.00
8286;BME280;4181;43.416;24.598;2022-12-29T14:03:53;100967.75;;;13.70;100.00
8286;BME280;4181;43.416;24.598;2022-12-29T14:06:27;100959.38;;;13.43;100.00
8286;BME280;4181;43.416;24.598;2022-12-29T14:09:00;100972.00;;;13.44;100.00
8286;BME280;4181;43.416;24.598;2022-12-29T14:11:32;100964.69;;;13.50;100.00
8286;BME280;4181;43.416;24.598;2022-12-29T14:14:00;100971.41;;;13.42;100.00
8286;BME280;4181;43.416;24.598;2022-12-29T14:16:36;100964.03;;;13.43;100.00
8286;BME280;4181;43.416;24.598;2022-12-29T14:19:16;100979.03;;;13.40;100.00
8286;BME280;4181;43.416;24.598;2022-12-29T14:22:04;100976.88;;;13.42;100.00
8286;BME280;4181;43.416;24.598;2022-12-29T14:34:56;100989.53;;;12.70;100.00
8286;BME280;4181;43.416;24.598;2022-12-29T14:42:43;100988.78;;;12.47;100.00
8286;BME280;4181;43.416;24.598;2022-12-29T14:47:41;101007.28;;;12.40;100.00
8286;BME280;4181;43.416;24.598;2022-12-29T14:52:58;101011.84;;;12.23;100.00
8286;BME280;4181;43.416;24.598;2022-12-29T14:58:11;101019.25;;;11.76;100.00
8286;BME280;4181;43.416;24.598;2022-12-29T15:00:38;101029.34;;;11.64;100.00
8286;BME280;4181;43.416;24.598;2022-12-29T15:03:06;101034.56;;;11.66;100.00
8286;BME280;4181;43.416;24.598;2022-12-29T15:08:12;101030.31;;;11.28;100.00
8286;BME280;4181;43.416;24.598;2022-12-29T15:13:41;101027.50;;;11.05;100.00
8286;BME280;4181;43.416;24.598;2022-12-29T15:16:30;101020.53;;;11.09;100.00
8286;BME280;4181;43.416;24.598;2022-12-29T15:18:57;101035.06;;;10.92;100.00
8286;BME280;4181;43.416;24.598;2022-12-29T15:21:29;101029.84;;;10.90;100.00
8286;BME280;4181;43.416;24.598;2022-12-29T15:23:55;101029.84;;;10.43;100.00
8286;BME280;4181;43.416;24.598;2022-12-29T15:26:21;101026.66;;;10.46;100.00
8286;BME280;4181;43.416;24.598;2022-12-29T15:28:51;101026.59;;;10.34;100.00
8286;BME280;4181;43.416;24.598;2022-12-29T15:31:18;101034.72;;;10.23;100.00
8286;BME280;4181;43.416;24.598;2022-12-29T15:33:47;101035.56;;;10.23;100.00
8286;BME280;4181;43.416;24.598;2022-12-29T15:36:22;101039.63;;;10.14;100.00
8286;BME280;4181;43.416;24.598;2022-12-29T15:38:48;101026.50;;;9.80;100.00
8286;BME280;4181;43.416;24.598;2022-12-29T15:41:32;101040.13;;;10.04;100.00
8286;BME280;4181;43.416;24.598;2022-12-29T15:44:26;101035.72;;;10.03;100.00
8286;BME280;4181;43.416;24.598;2022-12-29T15:46:53;101032.44;;;9.95;100.00
8286;BME280;4181;43.416;24.598;2022-12-29T15:49:20;101042.84;;;10.04;100.00
8286;BME280;4181;43.416;24.598;2022-12-29T15:51:45;101036.25;;;9.94;100.00
8286;BME280;4181;43.416;24.598;2022-12-29T15:54:20;101034.69;;;9.80;100.00